createdAt,value
2018-08-11T00:01:27.553Z,43.80
2018-08-11T00:03:56.012Z,43.80
2018-08-11T00:06:24.404Z,43.70
2018-08-11T00:08:52.989Z,43.80
2018-08-11T00:11:21.388Z,43.80
2018-08-11T00:13:49.777Z,43.80
2018-08-11T00:16:18.598Z,43.80
2018-08-11T00:18:47.301Z,43.80
2018-08-11T00:21:15.826Z,43.70
2018-08-11T00:23:44.459Z,44.30
2018-08-11T00:26:13.083Z,43.70
2018-08-11T00:28:41.639Z,43.60
2018-08-11T00:31:10.037Z,44.30
2018-08-11T00:33:38.725Z,43.70
2018-08-11T00:36:07.742Z,43.70
2018-08-11T00:38:36.210Z,43.60
2018-08-11T00:41:04.830Z,43.60
2018-08-11T00:43:33.502Z,43.70
2018-08-11T00:46:01.917Z,43.80
2018-08-11T00:48:30.589Z,43.90
2018-08-11T00:50:59.090Z,44.00
2018-08-11T00:53:27.528Z,44.10
2018-08-11T00:55:56.080Z,44.10
2018-08-11T00:58:24.656Z,44.90
2018-08-11T01:00:53.403Z,44.20
2018-08-11T01:03:21.938Z,44.30
2018-08-11T01:05:50.529Z,44.30
2018-08-11T01:08:19.017Z,44.40
2018-08-11T01:10:48.116Z,44.40
2018-08-11T01:13:16.680Z,44.60
2018-08-11T01:15:45.106Z,44.60
2018-08-11T01:18:13.790Z,44.70
2018-08-11T01:20:42.205Z,44.70
2018-08-11T01:23:10.848Z,44.70
2018-08-11T01:25:39.324Z,44.70
2018-08-11T01:28:08.764Z,44.70
2018-08-11T01:30:37.404Z,44.70
2018-08-11T01:33:06.229Z,44.70
2018-08-11T01:35:34.655Z,44.60
2018-08-11T01:38:03.270Z,44.60
2018-08-11T01:40:31.742Z,44.60
2018-08-11T01:43:01.141Z,44.60
2018-08-11T01:45:29.767Z,44.70
2018-08-11T01:47:58.628Z,44.70
2018-08-11T01:50:27.265Z,44.70
2018-08-11T01:52:55.988Z,44.70
2018-08-11T01:55:24.408Z,44.70
2018-08-11T01:57:52.837Z,44.70
2018-08-11T02:00:21.754Z,44.70
2018-08-11T02:02:50.649Z,44.70
2018-08-11T02:05:19.107Z,44.60
2018-08-11T02:07:47.492Z,44.60
2018-08-11T02:10:19.159Z,44.60
2018-08-11T02:12:48.164Z,44.60
2018-08-11T02:15:17.069Z,44.60
2018-08-11T02:17:45.693Z,45.30
2018-08-11T02:20:15.556Z,44.70
2018-08-11T02:22:45.358Z,44.60
2018-08-11T02:25:13.830Z,44.60
2018-08-11T02:27:42.308Z,44.70
2018-08-11T02:30:13.117Z,45.50
2018-08-11T02:32:41.929Z,44.70
2018-08-11T02:35:11.645Z,44.70
2018-08-11T02:37:41.237Z,44.80
2018-08-11T02:40:11.304Z,44.80
2018-08-11T02:42:39.838Z,44.80
2018-08-11T02:45:09.882Z,44.80
2018-08-11T02:47:38.984Z,44.70
2018-08-11T02:50:09.104Z,44.60
2018-08-11T02:52:37.981Z,44.60
2018-08-11T02:55:06.691Z,44.50
2018-08-11T02:57:35.261Z,44.50
2018-08-11T03:00:04.146Z,44.50
2018-08-11T03:02:32.653Z,44.50
2018-08-11T03:05:01.226Z,44.40
2018-08-11T03:07:29.862Z,44.40
2018-08-11T03:09:58.638Z,44.30
2018-08-11T03:12:27.246Z,44.30
2018-08-11T03:14:55.840Z,44.20
2018-08-11T03:17:24.809Z,44.10
2018-08-11T03:19:53.292Z,44.10
2018-08-11T03:22:22.113Z,44.10
2018-08-11T03:24:50.569Z,44.00
2018-08-11T03:27:19.241Z,44.00
2018-08-11T03:29:47.964Z,43.90
2018-08-11T03:32:16.412Z,43.70
2018-08-11T03:34:44.821Z,44.40
2018-08-11T03:37:13.213Z,43.70
2018-08-11T03:39:41.713Z,43.70
2018-08-11T03:42:10.274Z,43.50
2018-08-11T03:44:38.689Z,43.60
2018-08-11T03:47:07.129Z,43.60
2018-08-11T03:49:35.785Z,43.60
2018-08-11T03:52:04.325Z,43.50
2018-08-11T03:54:33.432Z,43.50
2018-08-11T03:57:01.830Z,43.50
2018-08-11T03:59:30.456Z,43.50
2018-08-11T04:01:59.000Z,43.40
2018-08-11T04:04:27.590Z,43.40
2018-08-11T04:06:56.131Z,43.30
2018-08-11T04:09:24.768Z,43.30
2018-08-11T04:11:53.273Z,43.30
2018-08-11T04:14:21.687Z,43.30
2018-08-11T04:16:50.125Z,43.30
2018-08-11T04:19:18.687Z,43.40
2018-08-11T04:21:47.247Z,43.50
2018-08-11T04:24:15.748Z,43.40
2018-08-11T04:26:44.669Z,43.40
2018-08-11T04:29:13.054Z,43.40
2018-08-11T04:31:41.482Z,43.40
2018-08-11T04:34:10.123Z,43.40
2018-08-11T04:36:38.544Z,43.40
2018-08-11T04:39:08.555Z,43.40
2018-08-11T04:41:37.703Z,43.40
2018-08-11T04:44:06.109Z,43.30
2018-08-11T04:46:34.629Z,43.60
2018-08-11T04:49:03.118Z,43.30
2018-08-11T04:51:31.548Z,43.40
2018-08-11T04:53:59.939Z,43.30
2018-08-11T04:56:28.470Z,43.10
2018-08-11T04:58:57.027Z,43.10
2018-08-11T05:01:25.670Z,43.00
2018-08-11T05:03:54.416Z,42.90
2018-08-11T05:06:22.942Z,42.40
2018-08-11T05:08:51.544Z,41.50
2018-08-11T05:11:19.999Z,41.00
2018-08-11T05:13:48.506Z,40.30
2018-08-11T05:16:16.905Z,39.60
2018-08-11T05:18:45.310Z,39.60
2018-08-11T05:21:14.391Z,39.70
2018-08-11T05:23:42.899Z,40.00
2018-08-11T05:26:11.481Z,40.20
2018-08-11T05:28:39.880Z,40.30
2018-08-11T05:31:08.581Z,40.40
2018-08-11T05:33:37.154Z,40.50
2018-08-11T05:36:05.949Z,40.70
2018-08-11T05:38:35.039Z,40.80
2018-08-11T05:41:04.182Z,40.90
2018-08-11T05:43:32.771Z,41.00
2018-08-11T05:46:01.180Z,41.30
2018-08-11T05:48:29.747Z,41.40
2018-08-11T05:50:58.184Z,41.50
2018-08-11T05:53:26.642Z,41.90
2018-08-11T05:55:55.226Z,42.20
2018-08-11T05:58:23.788Z,42.80
2018-08-11T06:00:52.337Z,43.20
2018-08-11T06:03:20.980Z,43.40
2018-08-11T06:05:49.702Z,43.30
2018-08-11T06:08:18.220Z,43.30
2018-08-11T06:10:46.623Z,43.50
2018-08-11T06:13:15.134Z,43.40
2018-08-11T06:15:43.948Z,43.40
2018-08-11T06:18:12.524Z,43.20
2018-08-11T06:20:41.388Z,43.10
2018-08-11T06:23:11.344Z,42.90
2018-08-11T06:25:40.068Z,42.80
2018-08-11T06:28:08.676Z,42.50
2018-08-11T06:30:37.242Z,42.00
2018-08-11T06:33:06.093Z,42.10
2018-08-11T06:35:35.590Z,42.00
2018-08-11T06:38:04.306Z,41.80
2018-08-11T06:40:32.752Z,41.50
2018-08-11T06:43:01.283Z,41.50
2018-08-11T06:45:30.624Z,41.30
2018-08-11T06:47:59.185Z,41.40
2018-08-11T06:50:28.075Z,41.30
2018-08-11T06:52:56.593Z,41.00
2018-08-11T06:55:25.175Z,41.00
2018-08-11T06:57:53.740Z,40.80
2018-08-11T07:00:22.839Z,40.80
2018-08-11T07:02:51.625Z,40.70
2018-08-11T07:05:20.538Z,40.60
2018-08-11T07:07:49.357Z,40.50
2018-08-11T07:10:17.888Z,40.90
2018-08-11T07:12:46.438Z,40.20
2018-08-11T07:15:14.966Z,40.10
2018-08-11T07:17:43.376Z,39.80
2018-08-11T07:20:11.914Z,39.70
2018-08-11T07:22:40.499Z,39.80
2018-08-11T07:25:09.090Z,40.00
2018-08-11T07:27:37.790Z,40.00
2018-08-11T07:30:06.221Z,39.90
2018-08-11T07:32:34.726Z,40.00
2018-08-11T07:35:03.326Z,40.10
2018-08-11T07:37:32.668Z,40.00
2018-08-11T07:40:01.713Z,39.70
2018-08-11T07:42:30.685Z,39.90
2018-08-11T07:44:59.199Z,39.70
2018-08-11T07:47:27.712Z,39.70
2018-08-11T07:49:56.486Z,39.60
2018-08-11T07:52:25.070Z,39.40
2018-08-11T07:54:53.588Z,39.40
2018-08-11T07:57:22.161Z,39.40
2018-08-11T07:59:50.676Z,39.50
2018-08-11T08:02:19.144Z,39.50
2018-08-11T08:04:47.568Z,39.50
2018-08-11T08:07:16.184Z,39.40
2018-08-11T08:09:45.098Z,39.50
2018-08-11T08:12:13.842Z,39.50
2018-08-11T08:14:43.513Z,39.60
2018-08-11T08:17:12.094Z,39.60
2018-08-11T08:19:41.072Z,39.60
2018-08-11T08:22:09.504Z,39.50
2018-08-11T08:24:39.540Z,39.50
2018-08-11T08:27:08.096Z,39.70
2018-08-11T08:29:37.496Z,40.10
2018-08-11T08:32:06.921Z,40.20
2018-08-11T08:34:35.304Z,39.90
2018-08-11T08:37:04.097Z,39.90
2018-08-11T08:39:32.777Z,39.80
2018-08-11T08:42:01.195Z,39.70
2018-08-11T08:44:30.577Z,39.70
2018-08-11T08:46:59.157Z,39.60
2018-08-11T08:49:27.650Z,39.50
2018-08-11T08:51:56.190Z,39.40
2018-08-11T08:54:25.184Z,39.20
2018-08-11T08:56:53.767Z,39.20
2018-08-11T08:59:22.276Z,39.20
2018-08-11T09:01:50.691Z,39.40
2018-08-11T09:04:19.043Z,39.40
2018-08-11T09:06:47.464Z,39.30
2018-08-11T09:09:15.838Z,39.40
2018-08-11T09:11:44.215Z,39.40
2018-08-11T09:14:12.760Z,39.40
2018-08-11T09:16:41.139Z,39.30
2018-08-11T09:19:09.504Z,39.20
2018-08-11T09:21:38.651Z,39.40
2018-08-11T09:24:07.356Z,39.40
2018-08-11T09:26:35.800Z,39.50
2018-08-11T09:29:04.190Z,39.50
2018-08-11T09:31:32.607Z,39.40
2018-08-11T09:34:00.986Z,39.40
2018-08-11T09:36:29.512Z,39.60
2018-08-11T09:38:58.107Z,39.50
2018-08-11T09:41:26.518Z,39.30
2018-08-11T09:43:55.757Z,39.60
2018-08-11T09:46:24.177Z,39.00
2018-08-11T09:48:52.749Z,39.00
2018-08-11T09:51:21.112Z,39.10
2018-08-11T09:53:50.270Z,40.00
2018-08-11T09:56:18.913Z,39.40
2018-08-11T09:58:47.464Z,39.50
2018-08-11T10:01:21.200Z,39.60
2018-08-11T10:03:49.932Z,39.60
2018-08-11T10:06:18.314Z,39.90
2018-08-11T10:08:46.849Z,39.40
2018-08-11T10:11:15.536Z,39.30
2018-08-11T10:13:44.020Z,39.30
2018-08-11T10:16:12.632Z,39.20
2018-08-11T10:18:41.064Z,39.20
2018-08-11T10:21:09.630Z,39.20
2018-08-11T10:23:38.188Z,39.10
2018-08-11T10:26:06.907Z,39.10
2018-08-11T10:28:35.532Z,38.90
2018-08-11T10:31:04.011Z,38.90
2018-08-11T10:33:33.048Z,39.60
2018-08-11T10:36:01.570Z,39.60
2018-08-11T10:38:29.968Z,39.00
2018-08-11T10:40:58.598Z,39.00
2018-08-11T10:43:27.216Z,38.90
2018-08-11T10:45:55.742Z,38.90
2018-08-11T10:48:24.395Z,38.80
2018-08-11T10:50:52.959Z,38.80
2018-08-11T10:53:21.580Z,38.90
2018-08-11T10:55:49.994Z,38.90
2018-08-11T10:58:18.804Z,39.10
2018-08-11T11:00:47.880Z,39.70
2018-08-11T11:03:16.294Z,40.20
2018-08-11T11:05:44.944Z,40.50
2018-08-11T11:08:13.391Z,40.40
2018-08-11T11:10:42.038Z,41.00
2018-08-11T11:13:11.044Z,41.00
2018-08-11T11:15:39.459Z,40.80
2018-08-11T11:18:08.263Z,40.50
2018-08-11T11:20:36.879Z,40.30
2018-08-11T11:23:06.043Z,40.10
2018-08-11T11:25:34.469Z,39.90
2018-08-11T11:28:03.097Z,39.70
2018-08-11T11:30:31.647Z,39.70
2018-08-11T11:33:00.240Z,39.60
2018-08-11T11:35:29.404Z,39.50
2018-08-11T11:37:57.905Z,39.30
2018-08-11T11:40:27.520Z,39.30
2018-08-11T11:42:56.076Z,39.40
2018-08-11T11:45:24.687Z,39.30
2018-08-11T11:47:53.701Z,39.40
2018-08-11T11:50:22.146Z,39.40
2018-08-11T11:52:50.802Z,39.10
2018-08-11T11:55:19.257Z,38.90
2018-08-11T11:57:47.659Z,38.90
2018-08-11T12:00:16.246Z,39.10
2018-08-11T12:02:45.215Z,39.10
2018-08-11T12:05:13.711Z,38.90
2018-08-11T12:07:42.436Z,38.80
2018-08-11T12:10:11.698Z,38.70
2018-08-11T12:12:40.433Z,38.60
2018-08-11T12:15:09.149Z,38.60
2018-08-11T12:17:37.717Z,38.60
2018-08-11T12:20:06.285Z,38.50
2018-08-11T12:22:34.941Z,38.60
2018-08-11T12:25:08.784Z,38.60
2018-08-11T12:27:40.963Z,38.60
2018-08-11T12:30:12.995Z,38.60
2018-08-11T12:32:46.479Z,38.50
2018-08-11T12:35:18.627Z,38.60
2018-08-11T12:37:50.907Z,38.50
2018-08-11T12:40:19.845Z,38.40
2018-08-11T12:42:51.511Z,38.50
2018-08-11T12:45:20.122Z,38.50
2018-08-11T12:47:50.422Z,38.50
2018-08-11T12:50:19.556Z,38.70
2018-08-11T12:52:47.974Z,38.60
2018-08-11T12:55:16.671Z,38.50
2018-08-11T12:57:45.583Z,38.50
2018-08-11T13:00:14.290Z,38.50
2018-08-11T13:02:43.038Z,38.40
2018-08-11T13:05:12.042Z,38.30
2018-08-11T13:07:40.638Z,38.20
2018-08-11T13:10:09.133Z,38.20
2018-08-11T13:12:37.928Z,38.50
2018-08-11T13:15:07.305Z,38.80
2018-08-11T13:17:35.945Z,38.70
2018-08-11T13:20:05.355Z,38.50
2018-08-11T13:22:33.770Z,38.30
2018-08-11T13:25:02.840Z,38.10
2018-08-11T13:27:31.382Z,38.10
2018-08-11T13:30:00.456Z,38.00
2018-08-11T13:32:29.091Z,38.00
2018-08-11T13:34:57.737Z,37.80
2018-08-11T13:37:26.575Z,37.80
2018-08-11T13:39:55.287Z,37.60
2018-08-11T13:42:24.181Z,37.70
2018-08-11T13:44:52.657Z,37.80
2018-08-11T13:47:21.260Z,37.60
2018-08-11T13:49:49.993Z,37.50
2018-08-11T13:52:18.413Z,37.40
2018-08-11T13:54:46.869Z,37.30
2018-08-11T13:57:16.085Z,37.20
2018-08-11T13:59:45.326Z,37.10
2018-08-11T14:02:13.981Z,37.20
2018-08-11T14:04:42.705Z,37.80
2018-08-11T14:07:11.237Z,37.10
2018-08-11T14:09:40.015Z,37.10
2018-08-11T14:12:08.550Z,37.00
2018-08-11T14:14:37.043Z,37.00
2018-08-11T14:17:05.891Z,37.10
2018-08-11T14:19:34.402Z,37.10
2018-08-11T14:22:03.264Z,37.00
2018-08-11T14:24:31.853Z,36.70
2018-08-11T14:27:00.391Z,36.60
2018-08-11T14:29:28.858Z,36.70
2018-08-11T14:31:58.307Z,36.70
2018-08-11T14:34:27.331Z,36.50
2018-08-11T14:36:57.464Z,36.80
2018-08-11T14:39:26.941Z,36.70
2018-08-11T14:41:55.717Z,36.50
2018-08-11T14:44:24.203Z,36.40
2018-08-11T14:46:52.785Z,36.30
2018-08-11T14:49:21.681Z,36.60
2018-08-11T14:51:51.157Z,36.60
2018-08-11T14:54:19.728Z,36.50
2018-08-11T14:56:48.704Z,36.30
2018-08-11T14:59:17.220Z,36.30
2018-08-11T15:01:45.817Z,36.10
2018-08-11T15:04:14.379Z,36.10
2018-08-11T19:21:29.607Z,39.00
2018-08-11T19:23:59.154Z,40.10
2018-08-11T19:26:28.510Z,40.50
2018-08-11T19:28:57.104Z,40.60
2018-08-11T19:31:26.552Z,40.50
2018-08-11T19:33:58.696Z,39.70
2018-08-11T19:36:28.293Z,39.70
2018-08-11T19:38:57.495Z,39.70
2018-08-11T19:41:26.561Z,39.70
2018-08-11T19:43:55.065Z,39.60
2018-08-11T19:46:24.217Z,39.60
2018-08-11T19:48:53.058Z,39.60
2018-08-11T19:51:23.000Z,39.50
2018-08-11T19:53:52.132Z,39.50
2018-08-11T19:56:21.757Z,39.50
2018-08-11T19:58:50.596Z,39.50
2018-08-11T20:01:19.249Z,39.50
2018-08-11T20:03:48.657Z,40.30
2018-08-11T20:06:17.404Z,39.60
2018-08-11T20:08:46.682Z,39.80
2018-08-11T20:11:15.482Z,39.80
2018-08-11T20:13:44.587Z,39.80
2018-08-11T20:16:13.613Z,39.80
2018-08-11T20:18:42.455Z,39.90
2018-08-11T20:21:11.002Z,39.80
2018-08-11T20:23:39.817Z,39.70
2018-08-11T20:26:08.771Z,39.70
2018-08-11T20:28:37.597Z,39.70
2018-08-11T20:31:06.668Z,39.80
2018-08-11T20:40:17.364Z,39.30
2018-08-11T20:42:46.756Z,40.90
2018-08-11T20:45:15.694Z,41.50
2018-08-11T20:47:44.597Z,41.70
2018-08-11T20:50:13.659Z,41.50
2018-08-11T20:52:42.788Z,41.30
2018-08-11T20:55:12.167Z,41.30
2018-08-11T20:57:40.568Z,41.20
2018-08-11T21:00:11.472Z,41.10
2018-08-11T21:02:41.859Z,41.10
2018-08-11T21:05:20.035Z,41.00
2018-08-11T21:07:49.194Z,41.00
2018-08-11T21:10:18.400Z,41.00
2018-08-11T21:12:46.979Z,41.00
2018-08-11T21:15:15.610Z,41.00
2018-08-11T21:17:44.456Z,41.00
2018-08-11T21:20:14.060Z,41.00
2018-08-11T21:22:42.706Z,41.00
2018-08-11T21:25:11.781Z,40.90
2018-08-11T21:27:40.694Z,41.50
2018-08-11T21:30:12.860Z,40.80
2018-08-11T21:32:41.594Z,40.80
2018-08-11T21:35:10.620Z,40.80
2018-08-11T21:37:39.710Z,40.80
2018-08-11T21:40:10.834Z,40.80
2018-08-11T21:42:39.809Z,40.80
2018-08-11T21:45:08.700Z,40.80
2018-08-11T21:47:37.390Z,40.90
2018-08-11T21:50:06.628Z,40.90
2018-08-11T21:52:35.517Z,40.80
2018-08-11T21:55:03.987Z,40.90
2018-08-11T21:57:32.439Z,40.80
2018-08-11T22:00:00.871Z,40.90
2018-08-11T22:02:29.934Z,40.90
2018-08-11T22:04:58.366Z,40.80
2018-08-11T22:07:27.261Z,40.90
2018-08-11T22:09:55.687Z,41.00
2018-08-11T22:12:24.314Z,41.00
2018-08-11T22:14:52.714Z,41.00
2018-08-11T22:17:21.232Z,41.00
2018-08-11T22:19:49.735Z,40.90
2018-08-11T22:22:18.255Z,41.00
2018-08-11T22:24:46.694Z,41.00
2018-08-11T22:27:15.177Z,41.00
2018-08-11T22:29:43.778Z,41.00
2018-08-11T22:32:12.386Z,41.10
2018-08-11T22:34:41.477Z,41.70
2018-08-11T22:37:10.142Z,41.10
2018-08-11T22:39:39.096Z,41.10
2018-08-11T22:42:07.916Z,41.10
2018-08-11T22:44:36.469Z,41.10
2018-08-11T22:47:05.699Z,41.10
2018-08-11T22:49:34.133Z,41.10
2018-08-11T22:52:02.854Z,41.10
2018-08-11T22:54:31.368Z,41.10
2018-08-11T22:56:59.938Z,41.10
2018-08-11T22:59:28.875Z,41.10
2018-08-11T23:01:57.387Z,41.10
2018-08-11T23:04:26.829Z,41.20
2018-08-11T23:06:55.298Z,41.10
2018-08-11T23:09:23.829Z,41.10
2018-08-11T23:11:52.828Z,41.20
2018-08-11T23:14:21.327Z,41.20
2018-08-11T23:16:49.860Z,41.20
2018-08-11T23:19:18.252Z,41.20
2018-08-11T23:21:46.841Z,41.20
2018-08-11T23:24:15.293Z,41.20
2018-08-11T23:26:43.958Z,41.20
2018-08-11T23:29:12.412Z,41.20
2018-08-11T23:31:40.846Z,41.10
2018-08-11T23:34:09.233Z,41.10
2018-08-11T23:36:37.761Z,41.10
2018-08-11T23:39:07.343Z,41.70
2018-08-11T23:41:35.751Z,41.20
2018-08-11T23:44:04.215Z,41.60
2018-08-11T23:46:32.922Z,41.20
2018-08-11T23:49:01.721Z,41.30
2018-08-11T23:51:30.260Z,41.20
2018-08-11T23:53:58.709Z,41.10
2018-08-11T23:56:27.126Z,41.10
2018-08-11T23:58:55.655Z,41.00
